Time;durP1;ratioP1;P1;durP2;ratioP2;P2;SDS_P1;SDS_P2;PMS_P1;PMS_P2;Temp;Humidity;BMP_temperature;BMP_pressure;BME280_temperature;BME280_humidity;BME280_pressure;Samples;Min_cycle;Max_cycle;Signal;HPM_P1;HPM_P2
2021/09/17 00:00:14;;;;;;;14.65;12.93;;;15.60;91.70;;;;;;5052556;28;20381;-65
2021/09/17 00:02:40;;;;;;;13.35;11.05;;;15.70;91.80;;;;;;5055074;28;20021;-64
2021/09/17 00:05:06;;;;;;;13.20;11.80;;;15.60;91.90;;;;;;5055372;28;20357;-65
2021/09/17 00:07:32;;;;;;;12.88;11.45;;;15.60;92.00;;;;;;5049711;28;20032;-65
2021/09/17 00:09:57;;;;;;;12.85;11.48;;;15.60;92.10;;;;;;5049670;28;20021;-65
2021/09/17 00:12:23;;;;;;;12.23;10.05;;;15.60;92.20;;;;;;5049643;28;20495;-65
2021/09/17 00:14:49;;;;;;;13.48;11.60;;;15.60;92.30;;;;;;5048319;28;20036;-65
2021/09/17 00:17:14;;;;;;;14.85;12.20;;;15.60;92.30;;;;;;5034441;28;20017;-65
2021/09/17 00:19:40;;;;;;;14.57;12.77;;;15.60;92.40;;;;;;5055093;28;20472;-65
2021/09/17 00:22:06;;;;;;;19.50;15.63;;;15.60;92.50;;;;;;5048652;28;20376;-65
2021/09/17 00:24:32;;;;;;;17.75;15.40;;;15.50;92.70;;;;;;5049511;28;20033;-65
2021/09/17 00:26:58;;;;;;;18.50;15.27;;;15.40;92.80;;;;;;5054823;28;20021;-65
2021/09/17 00:29:24;;;;;;;18.65;16.00;;;15.40;93.00;;;;;;5054939;28;20040;-65
2021/09/17 00:31:50;;;;;;;19.13;15.63;;;15.30;93.20;;;;;;5052346;28;20016;-65
2021/09/17 00:34:15;;;;;;;18.67;15.38;;;15.30;93.30;;;;;;5033783;28;20021;-65
2021/09/17 00:36:41;;;;;;;15.93;13.50;;;15.30;93.40;;;;;;5057537;28;20024;-65
2021/09/17 00:39:08;;;;;;;16.63;14.57;;;15.40;93.40;;;;;;5052086;28;20022;-64
2021/09/17 00:41:34;;;;;;;15.75;13.38;;;15.40;93.40;;;;;;5039614;28;20056;-64
2021/09/17 00:44:00;;;;;;;17.63;14.63;;;15.50;93.40;;;;;;5054705;28;20051;-65
2021/09/17 00:46:25;;;;;;;17.50;13.93;;;15.50;93.40;;;;;;5051874;28;20121;-65
2021/09/17 00:48:51;;;;;;;15.90;13.38;;;15.50;93.40;;;;;;5046144;28;20441;-64
2021/09/17 00:51:16;;;;;;;16.35;13.63;;;15.50;93.40;;;;;;5050687;28;20036;-65
2021/09/17 00:53:42;;;;;;;18.65;14.70;;;15.50;93.50;;;;;;5051573;28;20104;-65
2021/09/17 00:56:07;;;;;;;17.55;15.65;;;15.50;93.50;;;;;;5048718;28;20025;-65
2021/09/17 00:58:33;;;;;;;17.98;14.75;;;15.50;93.50;;;;;;5051628;28;20303;-64
2021/09/17 01:00:59;;;;;;;17.23;13.85;;;15.50;93.60;;;;;;5048834;28;20405;-64
2021/09/17 01:03:25;;;;;;;15.68;13.40;;;15.50;93.60;;;;;;5053626;28;20021;-65
2021/09/17 01:05:50;;;;;;;16.05;13.55;;;15.50;93.70;;;;;;5052549;28;20037;-65
2021/09/17 01:08:16;;;;;;;16.88;14.02;;;15.50;93.80;;;;;;5051340;28;20029;-65
2021/09/17 01:10:42;;;;;;;15.00;12.85;;;15.50;93.80;;;;;;5052631;28;20016;-64
2021/09/17 01:13:08;;;;;;;16.83;13.80;;;15.50;93.90;;;;;;5049940;28;20415;-65
2021/09/17 01:15:34;;;;;;;18.45;15.25;;;15.50;93.90;;;;;;5051164;28;20473;-65
2021/09/17 01:17:59;;;;;;;19.02;14.88;;;15.50;93.90;;;;;;5051413;28;20480;-64
2021/09/17 01:20:25;;;;;;;19.55;15.95;;;15.50;94.00;;;;;;5051086;28;20036;-65
2021/09/17 01:22:50;;;;;;;18.27;15.18;;;15.50;94.00;;;;;;5047265;28;20021;-65
2021/09/17 01:25:20;;;;;;;16.42;13.27;;;15.50;94.10;;;;;;5054291;28;20060;-65
2021/09/17 01:27:48;;;;;;;16.88;12.93;;;15.50;94.10;;;;;;5035376;28;20480;-65
2021/09/17 01:30:14;;;;;;;16.67;13.60;;;15.50;94.20;;;;;;5048499;28;20489;-65
2021/09/17 01:32:41;;;;;;;16.05;13.75;;;15.50;94.20;;;;;;5054993;28;20056;-64
2021/09/17 01:35:12;;;;;;;18.23;15.73;;;15.50;94.30;;;;;;5052483;28;20031;-65
2021/09/17 01:37:38;;;;;;;17.25;15.07;;;15.50;94.40;;;;;;5051411;28;20473;-65
2021/09/17 01:40:05;;;;;;;18.13;15.27;;;15.50;94.40;;;;;;5040891;28;20025;-65
2021/09/17 01:42:31;;;;;;;21.50;17.60;;;15.50;94.40;;;;;;5045242;28;20043;-64
2021/09/17 01:44:56;;;;;;;23.83;17.52;;;15.50;94.50;;;;;;5048089;28;20477;-65
2021/09/17 01:47:22;;;;;;;24.20;18.65;;;15.50;94.60;;;;;;5051077;28;20025;-65
2021/09/17 01:49:48;;;;;;;23.40;18.13;;;15.50;94.60;;;;;;5053596;28;20055;-65
2021/09/17 01:52:13;;;;;;;25.90;18.92;;;15.50;94.70;;;;;;5057662;28;20021;-65
2021/09/17 01:54:40;;;;;;;25.73;19.45;;;15.60;94.70;;;;;;5057213;28;20021;-65
2021/09/17 01:57:06;;;;;;;25.50;19.23;;;15.60;94.80;;;;;;5058409;28;20016;-64
2021/09/17 01:59:32;;;;;;;24.38;19.50;;;15.60;94.80;;;;;;5053731;28;20023;-64
2021/09/17 02:01:58;;;;;;;23.20;18.52;;;15.60;94.80;;;;;;5050651;28;20045;-65
2021/09/17 02:04:23;;;;;;;26.83;20.60;;;15.60;94.90;;;;;;5016890;28;20436;-64
2021/09/17 02:06:49;;;;;;;24.13;18.52;;;15.70;94.90;;;;;;5053720;28;20107;-65
2021/09/17 02:09:14;;;;;;;24.00;19.80;;;15.70;94.90;;;;;;5033016;28;20108;-65
2021/09/17 02:11:40;;;;;;;23.65;18.77;;;15.70;95.00;;;;;;5053703;28;20032;-65
2021/09/17 02:14:06;;;;;;;27.83;19.90;;;15.70;95.00;;;;;;5050734;28;20013;-65
2021/09/17 02:16:32;;;;;;;23.92;19.55;;;15.70;95.10;;;;;;5052281;28;20025;-65
2021/09/17 02:18:57;;;;;;;27.08;20.48;;;15.70;95.20;;;;;;5047998;28;20063;-65
2021/09/17 02:21:23;;;;;;;26.00;19.25;;;15.70;95.20;;;;;;5050597;28;20405;-64
2021/09/17 02:23:49;;;;;;;23.38;19.25;;;15.70;95.20;;;;;;5050975;28;20021;-64
2021/09/17 02:26:16;;;;;;;26.27;19.92;;;15.80;95.30;;;;;;5053401;28;20031;-65
2021/09/17 02:28:41;;;;;;;25.05;19.42;;;15.80;95.30;;;;;;5050702;28;20028;-65
2021/09/17 02:31:07;;;;;;;26.88;20.10;;;15.80;95.40;;;;;;5050599;28;20021;-65
2021/09/17 02:33:33;;;;;;;25.50;20.58;;;15.80;95.70;;;;;;5056074;28;20353;-65
2021/09/17 02:35:59;;;;;;;28.10;20.73;;;15.80;95.50;;;;;;5047119;28;20040;-65
2021/09/17 02:38:25;;;;;;;26.17;20.70;;;15.80;95.50;;;;;;5048551;28;20040;-64
2021/09/17 02:40:51;;;;;;;26.63;21.15;;;15.70;95.60;;;;;;5046662;28;20013;-65
2021/09/17 02:43:16;;;;;;;30.55;23.65;;;15.70;95.70;;;;;;5050296;28;20040;-65
2021/09/17 02:45:42;;;;;;;31.50;23.92;;;15.60;95.80;;;;;;5051468;28;20043;-65
2021/09/17 02:48:08;;;;;;;27.73;21.90;;;15.60;96.10;;;;;;5054668;28;20028;-65
2021/09/17 02:50:33;;;;;;;25.50;21.20;;;15.60;96.20;;;;;;5048545;28;20052;-64
2021/09/17 02:52:59;;;;;;;26.40;19.35;;;15.60;96.20;;;;;;5053546;28;20032;-64
2021/09/17 02:55:24;;;;;;;27.63;20.30;;;15.60;96.20;;;;;;5056714;28;20036;-65
2021/09/17 02:57:50;;;;;;;25.83;20.02;;;15.70;96.20;;;;;;5053859;28;20373;-65
2021/09/17 03:00:16;;;;;;;24.08;19.23;;;15.70;96.20;;;;;;5050783;28;20025;-65
2021/09/17 03:02:42;;;;;;;27.13;20.20;;;15.70;96.20;;;;;;5039630;28;20025;-65
2021/09/17 03:05:08;;;;;;;23.90;20.10;;;15.80;96.20;;;;;;5055520;28;20509;-64
2021/09/17 03:07:33;;;;;;;25.35;18.75;;;15.70;96.20;;;;;;5053585;28;20079;-65
2021/09/17 03:09:58;;;;;;;26.23;20.25;;;15.70;96.30;;;;;;5056320;28;20033;-65
2021/09/17 03:12:24;;;;;;;23.13;19.27;;;15.70;96.30;;;;;;5053665;28;20393;-65
2021/09/17 03:14:49;;;;;;;27.73;19.90;;;15.70;96.40;;;;;;5053372;28;20074;-65
2021/09/17 03:17:15;;;;;;;24.17;17.92;;;15.80;96.40;;;;;;5041334;28;20484;-65
2021/09/17 03:19:41;;;;;;;24.52;19.08;;;15.80;96.50;;;;;;5050907;28;20045;-65
2021/09/17 03:22:06;;;;;;;25.08;20.63;;;15.80;96.50;;;;;;5054958;28;20059;-65
2021/09/17 03:24:32;;;;;;;27.13;22.15;;;15.70;96.50;;;;;;5057370;28;20057;-65
2021/09/17 03:26:57;;;;;;;25.88;21.10;;;15.70;96.60;;;;;;5053068;28;20362;-65
2021/09/17 03:29:23;;;;;;;28.55;22.38;;;15.60;96.70;;;;;;5035545;28;20538;-65
2021/09/17 03:31:49;;;;;;;30.08;24.02;;;15.60;96.80;;;;;;5050381;28;20099;-65
2021/09/17 03:34:15;;;;;;;30.75;23.83;;;15.60;97.00;;;;;;5053397;28;20083;-65
2021/09/17 03:36:43;;;;;;;32.60;24.35;;;15.50;97.40;;;;;;5035589;28;20045;-65
2021/09/17 03:39:11;;;;;;;29.85;23.10;;;15.40;97.50;;;;;;5055866;28;20540;-65
2021/09/17 03:41:37;;;;;;;27.80;21.00;;;15.40;97.60;;;;;;5052644;28;20374;-65
2021/09/17 03:44:02;;;;;;;27.33;20.98;;;15.40;97.70;;;;;;5055965;28;20474;-65
2021/09/17 03:46:28;;;;;;;29.90;23.92;;;15.40;97.70;;;;;;5055414;28;20115;-64
2021/09/17 03:48:53;;;;;;;27.73;22.35;;;15.40;97.80;;;;;;5049900;28;20047;-65
2021/09/17 03:51:19;;;;;;;28.38;23.40;;;15.40;97.80;;;;;;5054082;28;20024;-65
2021/09/17 03:53:44;;;;;;;36.03;28.27;;;15.40;97.90;;;;;;5052678;28;20104;-64
2021/09/17 03:56:10;;;;;;;40.35;30.60;;;15.40;98.10;;;;;;5051573;28;20025;-64
2021/09/17 03:58:35;;;;;;;38.22;29.15;;;15.30;98.40;;;;;;5037559;28;20025;-64
2021/09/17 04:01:01;;;;;;;33.90;25.88;;;15.30;98.50;;;;;;5052556;28;20116;-65
2021/09/17 04:03:29;;;;;;;32.88;23.20;;;15.30;98.50;;;;;;5037650;28;20491;-65
2021/09/17 04:05:55;;;;;;;27.73;21.75;;;15.30;98.50;;;;;;5052740;28;20059;-65
2021/09/17 04:08:20;;;;;;;31.58;24.63;;;15.30;98.40;;;;;;5055190;28;20048;-65
2021/09/17 04:10:46;;;;;;;33.25;25.50;;;15.30;98.50;;;;;;5056829;28;20032;-64
2021/09/17 04:13:11;;;;;;;31.38;25.85;;;15.40;98.50;;;;;;5055250;28;20025;-64
2021/09/17 04:15:37;;;;;;;35.78;27.05;;;15.30;98.60;;;;;;5049391;28;20112;-65
2021/09/17 04:18:02;;;;;;;29.15;24.98;;;15.30;98.70;;;;;;5051102;28;20389;-64
2021/09/17 04:20:28;;;;;;;32.20;24.77;;;15.30;98.70;;;;;;5052326;28;20021;-65
2021/09/17 04:22:53;;;;;;;34.75;27.23;;;15.30;98.70;;;;;;5049565;28;20451;-65
2021/09/17 04:25:20;;;;;;;34.90;27.42;;;15.30;98.70;;;;;;5047949;28;20033;-65
2021/09/17 04:27:45;;;;;;;34.00;25.77;;;15.30;98.80;;;;;;5037056;28;20496;-64
2021/09/17 04:30:14;;;;;;;36.22;26.25;;;15.30;98.80;;;;;;5036678;28;20107;-65
2021/09/17 04:32:39;;;;;;;31.58;24.65;;;15.40;98.80;;;;;;5034080;28;20035;-65
2021/09/17 04:35:06;;;;;;;30.17;25.48;;;15.40;98.80;;;;;;5034086;28;20025;-64
2021/09/17 04:37:31;;;;;;;34.00;24.67;;;15.40;98.70;;;;;;5054946;28;20032;-65
2021/09/17 04:39:57;;;;;;;30.17;24.20;;;15.40;98.70;;;;;;5055883;28;20104;-65
2021/09/17 04:42:23;;;;;;;33.72;24.88;;;15.40;98.70;;;;;;5055125;28;20021;-64
2021/09/17 04:44:48;;;;;;;30.92;24.60;;;15.40;98.70;;;;;;5051913;28;20021;-64
2021/09/17 04:47:14;;;;;;;30.42;22.08;;;15.40;98.70;;;;;;5051846;28;20542;-64
2021/09/17 04:49:39;;;;;;;26.83;22.02;;;15.40;98.70;;;;;;5042081;28;20037;-65
2021/09/17 04:52:05;;;;;;;26.13;20.23;;;15.40;98.70;;;;;;5028965;28;20052;-64
2021/09/17 04:54:30;;;;;;;28.20;20.48;;;15.40;98.60;;;;;;5029671;28;20095;-65
2021/09/17 04:56:56;;;;;;;22.98;18.33;;;15.50;98.50;;;;;;5033653;28;20025;-65
2021/09/17 04:59:21;;;;;;;22.67;18.88;;;15.50;98.50;;;;;;5014075;28;20116;-65
2021/09/17 05:01:47;;;;;;;28.17;22.30;;;15.50;98.40;;;;;;5011288;28;20139;-64
2021/09/17 05:04:13;;;;;;;34.10;25.85;;;15.50;98.40;;;;;;5016818;28;20389;-65
2021/09/17 05:06:38;;;;;;;31.30;26.17;;;15.40;98.40;;;;;;5034228;28;20033;-64
2021/09/17 05:09:04;;;;;;;32.28;26.40;;;15.40;98.50;;;;;;5031269;28;20022;-65
2021/09/17 05:11:29;;;;;;;31.98;25.45;;;15.40;98.60;;;;;;5031449;28;20025;-64
2021/09/17 05:13:55;;;;;;;29.65;25.40;;;15.40;98.60;;;;;;5031162;28;20022;-64
2021/09/17 05:16:20;;;;;;;32.28;25.23;;;15.40;98.70;;;;;;5031192;28;20076;-65
2021/09/17 05:18:46;;;;;;;29.25;22.98;;;15.40;98.80;;;;;;5031460;28;20108;-64
2021/09/17 05:21:13;;;;;;;25.00;20.73;;;15.30;98.70;;;;;;5018706;28;20358;-65
2021/09/17 05:23:39;;;;;;;23.27;18.65;;;15.40;98.70;;;;;;5031745;28;20049;-64
2021/09/17 05:26:05;;;;;;;23.20;18.48;;;15.50;98.60;;;;;;5033979;28;20493;-64
2021/09/17 05:28:31;;;;;;;22.40;17.33;;;15.60;98.50;;;;;;5029911;28;20056;-64
2021/09/17 05:30:57;;;;;;;20.73;15.77;;;15.60;98.30;;;;;;5026511;28;20104;-65
2021/09/17 05:33:22;;;;;;;19.75;16.75;;;15.60;98.20;;;;;;5032961;28;20100;-65
2021/09/17 05:35:48;;;;;;;20.92;17.85;;;15.60;98.10;;;;;;5027350;28;20030;-64
2021/09/17 05:38:14;;;;;;;21.88;18.10;;;15.60;98.00;;;;;;5027082;28;20022;-65
2021/09/17 05:40:39;;;;;;;24.67;19.13;;;15.60;98.00;;;;;;5027213;28;20025;-64
2021/09/17 05:43:05;;;;;;;26.13;20.17;;;15.60;98.00;;;;;;5030683;28;20019;-64
2021/09/17 05:45:30;;;;;;;25.30;19.92;;;15.60;98.00;;;;;;5018486;28;20029;-65
2021/09/17 05:47:56;;;;;;;26.30;21.38;;;15.60;97.90;;;;;;5025746;28;20036;-65
2021/09/17 05:50:22;;;;;;;24.00;19.40;;;15.50;97.90;;;;;;5016216;28;20029;-64
2021/09/17 05:52:47;;;;;;;22.17;18.17;;;15.60;97.80;;;;;;5029671;28;20030;-64
2021/09/17 05:55:13;;;;;;;25.35;17.85;;;15.60;97.80;;;;;;4999576;28;20029;-64
2021/09/17 05:57:38;;;;;;;26.05;20.20;;;15.60;97.70;;;;;;5026068;28;20044;-65
2021/09/17 06:00:06;;;;;;;24.58;19.75;;;15.60;97.70;;;;;;5033516;28;20017;-65
2021/09/17 06:02:32;;;;;;;23.60;18.77;;;15.60;97.70;;;;;;5028792;28;20028;-65
2021/09/17 06:04:57;;;;;;;24.38;18.27;;;15.60;97.70;;;;;;5032008;28;20030;-65
2021/09/17 06:07:23;;;;;;;22.88;17.70;;;15.60;97.70;;;;;;5029944;28;20032;-64
2021/09/17 06:09:48;;;;;;;20.17;16.13;;;15.60;97.60;;;;;;5036204;28;20105;-64
2021/09/17 06:12:14;;;;;;;21.52;16.67;;;15.70;97.60;;;;;;5023932;28;20109;-64
2021/09/17 06:14:39;;;;;;;23.58;16.52;;;15.70;97.50;;;;;;5031300;28;20025;-65
2021/09/17 06:17:05;;;;;;;18.85;15.38;;;15.80;97.50;;;;;;5027185;28;20018;-64
2021/09/17 06:19:30;;;;;;;17.42;14.43;;;15.80;97.40;;;;;;5025007;28;20044;-64
2021/09/17 06:21:56;;;;;;;19.42;15.98;;;15.90;97.40;;;;;;5028397;28;20107;-65
2021/09/17 06:24:21;;;;;;;19.70;16.00;;;15.90;97.20;;;;;;5029164;28;20481;-64
2021/09/17 06:26:47;;;;;;;18.25;14.90;;;16.00;97.20;;;;;;5027032;28;20037;-65
2021/09/17 06:29:13;;;;;;;15.30;12.90;;;16.00;97.10;;;;;;5026584;28;20017;-64
2021/09/17 06:31:38;;;;;;;23.30;16.58;;;16.10;97.10;;;;;;5041312;28;20047;-65
2021/09/17 06:34:05;;;;;;;26.95;20.13;;;16.10;97.00;;;;;;5041234;28;20151;-64
2021/09/17 06:36:30;;;;;;;24.38;20.63;;;16.10;97.00;;;;;;5034092;28;20031;-64
2021/09/17 06:38:56;;;;;;;30.70;23.13;;;16.00;97.10;;;;;;5021048;28;20100;-64
2021/09/17 06:41:23;;;;;;;27.00;21.05;;;16.00;97.20;;;;;;5035635;28;20021;-64
2021/09/17 06:43:48;;;;;;;25.48;20.70;;;16.00;97.20;;;;;;5033148;28;20035;-65
2021/09/17 06:46:14;;;;;;;25.75;22.02;;;16.00;97.30;;;;;;5029508;28;20025;-64
2021/09/17 06:48:40;;;;;;;29.80;22.52;;;16.10;97.50;;;;;;5036460;28;20037;-65
2021/09/17 06:51:06;;;;;;;22.92;19.48;;;16.10;97.60;;;;;;5048479;28;20548;-64
2021/09/17 06:53:33;;;;;;;24.17;19.38;;;16.10;97.70;;;;;;5031360;28;20060;-65
2021/09/17 06:55:58;;;;;;;29.75;23.25;;;16.10;97.70;;;;;;5053320;28;20037;-64
2021/09/17 06:58:47;;;;;;;31.88;24.80;;;16.20;97.70;;;;;;5034831;28;20018;-65
2021/09/17 07:01:12;;;;;;;28.75;23.48;;;16.20;97.70;;;;;;5046087;28;20528;-65
2021/09/17 07:03:38;;;;;;;29.13;23.67;;;16.20;97.70;;;;;;5056298;28;20121;-65
2021/09/17 07:09:08;;;;;;;33.03;26.05;;;16.30;97.70;;;;;;5047646;28;20029;-65
2021/09/17 07:14:22;;;;;;;32.75;27.88;;;16.30;97.90;;;;;;4993144;28;20589;-65
2021/09/17 07:16:47;;;;;;;33.60;25.70;;;16.30;97.90;;;;;;5027614;28;20122;-65
2021/09/17 07:20:20;;;;;;;32.70;25.98;;;16.30;98.00;;;;;;5040874;28;20032;-65
2021/09/17 07:30:10;;;;;;;31.10;23.92;;;16.40;98.00;;;;;;4904321;28;20468;-65
2021/09/17 07:32:36;;;;;;;32.53;26.23;;;16.40;98.10;;;;;;4992251;28;20107;-65
2021/09/17 07:35:02;;;;;;;33.10;26.92;;;16.50;97.90;;;;;;5012297;28;20042;-64
2021/09/17 07:37:28;;;;;;;30.67;26.05;;;16.50;97.70;;;;;;5034553;28;20064;-64
2021/09/17 07:39:53;;;;;;;31.40;25.75;;;16.50;97.60;;;;;;5054530;28;20025;-64
2021/09/17 07:45:32;;;;;;;32.78;26.42;;;16.70;97.40;;;;;;5044447;28;20136;-64
2021/09/17 07:48:00;;;;;;;31.92;27.17;;;16.60;97.20;;;;;;5051215;28;20468;-64
2021/09/17 07:50:31;;;;;;;33.35;26.85;;;16.70;97.20;;;;;;5042385;28;20426;-64
2021/09/17 07:52:57;;;;;;;29.80;25.98;;;16.80;97.50;;;;;;5052654;28;20388;-64
2021/09/17 07:55:23;;;;;;;30.63;24.98;;;16.80;97.10;;;;;;5041358;28;20056;-65
2021/09/17 07:58:29;;;;;;;;;;;;;;;;;;;;;
2021/09/17 08:00:55;;;;;;;26.35;22.75;;;16.90;97.00;;;;;;5041459;28;20035;-64
2021/09/17 08:03:22;;;;;;;20.05;17.52;;;17.00;96.90;;;;;;5033036;28;20108;-65
2021/09/17 08:12:52;;;;;;;25.88;21.42;;;17.30;96.40;;;;;;4961577;28;20042;-65
2021/09/17 08:16:07;;;;;;;23.80;20.10;;;17.30;96.60;;;;;;5033460;28;20040;-65
2021/09/17 08:18:32;;;;;;;35.00;27.40;;;17.50;96.00;;;;;;5021352;28;20021;-65
2021/09/17 08:21:43;;;;;;;;;;;;;;;;;;;;;
2021/09/17 08:24:14;;;;;;;23.88;20.23;;;17.60;95.80;;;;;;5036684;28;20023;-64
2021/09/17 08:26:45;;;;;;;22.38;19.30;;;17.70;95.70;;;;;;5035748;28;20108;-65
2021/09/17 08:29:11;;;;;;;19.88;17.13;;;17.90;95.50;;;;;;5032105;28;20444;-65
2021/09/17 08:31:38;;;;;;;31.95;26.40;;;18.00;95.30;;;;;;5034698;28;20093;-65
2021/09/17 08:34:05;;;;;;;36.00;29.58;;;18.00;94.90;;;;;;5047163;28;20021;-64
2021/09/17 08:36:30;;;;;;;39.63;32.05;;;18.10;94.60;;;;;;5041283;28;20489;-65
2021/09/17 08:38:56;;;;;;;31.00;26.63;;;18.10;94.50;;;;;;5053153;28;20107;-65
2021/09/17 08:41:44;;;;;;;34.50;28.17;;;18.10;94.60;;;;;;5052740;28;20079;-65
2021/09/17 08:44:09;;;;;;;34.13;29.38;;;18.10;94.50;;;;;;5052813;28;20106;-65
2021/09/17 08:46:40;;;;;;;35.65;30.90;;;18.20;94.50;;;;;;5038810;28;20106;-65
2021/09/17 08:49:42;;;;;;;;;;;;;;;;;;;;;
2021/09/17 08:55:37;;;;;;;33.88;28.52;;;18.20;94.20;;;;;;4943048;28;20058;-64
2021/09/17 08:58:02;;;;;;;30.90;24.80;;;18.20;94.50;;;;;;5031212;28;20433;-65
2021/09/17 09:00:29;;;;;;;37.53;30.02;;;18.30;94.40;;;;;;5046006;28;20033;-65
2021/09/17 09:02:57;;;;;;;39.00;31.02;;;18.40;94.30;;;;;;5045867;28;20048;-65
2021/09/17 09:05:48;;;;;;;;;;;;;;;;;;;;;
2021/09/17 09:12:26;;;;;;;36.38;30.52;;;18.50;94.00;;;;;;4983189;28;20121;-65
2021/09/17 09:15:14;;;;;;;29.27;24.40;;;18.50;94.00;;;;;;5035764;28;20100;-65
2021/09/17 09:17:41;;;;;;;32.40;26.40;;;18.60;94.00;;;;;;5030752;28;20037;-66
2021/09/17 09:20:24;;;;;;;26.13;20.73;;;18.70;94.00;;;;;;5044626;28;20017;-65
2021/09/17 09:23:07;;;;;;;27.02;21.00;;;19.00;93.70;;;;;;5046464;28;20039;-65
2021/09/17 09:25:53;;;;;;;22.40;18.77;;;19.30;93.40;;;;;;5044028;28;20021;-64
2021/09/17 09:28:47;;;;;;;24.02;18.73;;;19.50;93.50;;;;;;5021452;28;20053;-64
2021/09/17 09:31:16;;;;;;;23.63;19.42;;;19.80;92.70;;;;;;5034180;28;20354;-65
2021/09/17 09:33:49;;;;;;;23.27;17.75;;;20.10;92.50;;;;;;5050555;28;20073;-65
2021/09/17 09:36:17;;;;;;;19.83;15.65;;;20.30;92.00;;;;;;5051888;28;20179;-65
2021/09/17 09:38:42;;;;;;;21.55;17.42;;;20.50;91.80;;;;;;5049116;28;20017;-65
2021/09/17 09:41:20;;;;;;;20.80;16.48;;;20.60;91.50;;;;;;5051027;28;20021;-66
2021/09/17 09:43:59;;;;;;;21.70;17.85;;;20.80;91.30;;;;;;5048521;28;20536;-66
2021/09/17 09:46:30;;;;;;;22.50;17.02;;;20.90;91.00;;;;;;5050564;28;20025;-66
2021/09/17 09:48:59;;;;;;;19.08;16.60;;;21.00;90.90;;;;;;5050876;28;20243;-66
2021/09/17 09:51:25;;;;;;;17.20;14.95;;;21.10;90.80;;;;;;5050705;28;20049;-66
2021/09/17 09:53:51;;;;;;;20.40;15.93;;;21.20;90.60;;;;;;5050198;28;20029;-66
2021/09/17 09:56:19;;;;;;;17.88;14.57;;;21.40;90.40;;;;;;5050933;28;20025;-66
2021/09/17 09:58:47;;;;;;;20.80;18.40;;;21.70;90.20;;;;;;5054813;28;20033;-66
2021/09/17 10:01:16;;;;;;;21.35;17.88;;;21.90;89.40;;;;;;5055184;28;20061;-66
2021/09/17 10:03:43;;;;;;;21.52;15.90;;;22.00;88.50;;;;;;5032565;28;20104;-66
2021/09/17 10:06:09;;;;;;;16.92;14.25;;;22.10;88.10;;;;;;5052011;28;20040;-66
2021/09/17 10:08:34;;;;;;;14.80;13.27;;;22.20;87.70;;;;;;5053956;28;20029;-66
2021/09/17 10:11:00;;;;;;;17.20;15.35;;;22.40;87.30;;;;;;5031924;28;20041;-66
2021/09/17 10:13:25;;;;;;;21.90;16.98;;;22.50;86.40;;;;;;5051909;28;20029;-66
2021/09/17 10:15:58;;;;;;;17.30;15.07;;;22.60;85.90;;;;;;5054002;28;20071;-66
2021/09/17 10:18:24;;;;;;;20.10;17.30;;;22.90;85.00;;;;;;5055004;28;20473;-66
2021/09/17 10:20:50;;;;;;;16.67;14.90;;;23.00;83.90;;;;;;5053180;28;20424;-66
2021/09/17 10:23:31;;;;;;;21.33;18.00;;;23.20;83.70;;;;;;5042986;28;20021;-66
2021/09/17 10:26:02;;;;;;;20.10;17.00;;;23.30;82.20;;;;;;5036548;28;20025;-66
2021/09/17 10:28:28;;;;;;;17.05;14.80;;;23.40;81.30;;;;;;5055136;28;20060;-66
2021/09/17 10:31:09;;;;;;;14.48;12.90;;;23.50;81.00;;;;;;5041091;28;20396;-66
2021/09/17 10:33:35;;;;;;;21.67;17.40;;;23.80;80.90;;;;;;5042905;28;20024;-66
2021/09/17 10:36:00;;;;;;;16.30;13.68;;;24.20;79.90;;;;;;5055383;28;20025;-66
2021/09/17 10:38:26;;;;;;;14.30;12.80;;;24.50;79.30;;;;;;5055532;28;20079;-66
2021/09/17 10:41:03;;;;;;;15.13;13.50;;;24.90;78.40;;;;;;5055194;28;20021;-66
2021/09/17 10:43:33;;;;;;;15.70;14.10;;;25.40;77.20;;;;;;5047541;28;20014;-66
2021/09/17 10:46:01;;;;;;;12.15;10.95;;;25.80;76.20;;;;;;5028211;28;20037;-66
2021/09/17 10:48:57;;;;;;;14.63;12.47;;;26.30;75.30;;;;;;5051225;28;20048;-66
2021/09/17 10:51:58;;;;;;;13.60;11.98;;;26.70;74.50;;;;;;5040326;28;20024;-66
2021/09/17 10:54:56;;;;;;;13.77;12.38;;;27.40;74.30;;;;;;5029254;28;20385;-67
2021/09/17 10:57:21;;;;;;;13.00;11.70;;;28.80;70.80;;;;;;5044143;28;20049;-66
2021/09/17 10:59:47;;;;;;;12.88;10.30;;;30.20;67.60;;;;;;5051811;28;20102;-66
2021/09/17 11:02:13;;;;;;;12.27;9.75;;;31.30;65.10;;;;;;5054931;28;20017;-66
2021/09/17 11:04:47;;;;;;;10.70;9.57;;;32.70;62.50;;;;;;5049125;28;20083;-67
2021/09/17 11:07:21;;;;;;;11.27;9.45;;;34.40;58.70;;;;;;5052355;28;20454;-67
2021/09/17 11:09:52;;;;;;;11.98;10.77;;;35.50;55.20;;;;;;5033367;28;20021;-67
2021/09/17 11:12:23;;;;;;;12.75;9.40;;;35.00;51.00;;;;;;5049614;28;20025;-67
2021/09/17 11:15:08;;;;;;;11.48;10.30;;;34.10;50.50;;;;;;5018930;28;20473;-66
2021/09/17 11:17:56;;;;;;;12.25;11.05;;;33.50;51.30;;;;;;5047154;28;20032;-67
2021/09/17 11:20:40;;;;;;;11.20;10.07;;;32.90;51.60;;;;;;5053507;28;20377;-66
2021/09/17 11:23:07;;;;;;;9.18;8.23;;;32.40;51.70;;;;;;5049025;28;20103;-66
2021/09/17 11:26:00;;;;;;;10.32;9.35;;;32.70;52.40;;;;;;5045325;28;20021;-67
2021/09/17 11:28:29;;;;;;;10.52;9.38;;;32.70;51.90;;;;;;5046213;28;20117;-66
2021/09/17 11:31:35;;;;;;;11.65;10.45;;;32.90;52.00;;;;;;5045073;28;20480;-67
2021/09/17 11:34:06;;;;;;;11.32;10.02;;;34.20;49.70;;;;;;5007699;28;20045;-66
2021/09/17 11:36:39;;;;;;;11.30;9.93;;;34.40;48.20;;;;;;5046525;28;20096;-66
2021/09/17 11:39:23;;;;;;;8.20;7.38;;;34.30;47.30;;;;;;5047146;28;20424;-66
2021/09/17 11:41:53;;;;;;;9.27;8.48;;;35.60;47.20;;;;;;5050071;28;20019;-66
2021/09/17 11:44:37;;;;;;;8.18;7.35;;;37.50;45.10;;;;;;5053224;28;20538;-67
2021/09/17 11:47:08;;;;;;;9.20;8.30;;;39.10;43.20;;;;;;5052988;28;20135;-66
2021/09/17 11:49:42;;;;;;;8.98;8.07;;;39.70;41.20;;;;;;5047723;28;20142;-67
2021/09/17 11:52:19;;;;;;;9.35;8.45;;;39.80;41.20;;;;;;5049974;28;20108;-67
2021/09/17 11:55:00;;;;;;;10.27;9.10;;;40.30;41.10;;;;;;5052857;28;20079;-67
2021/09/17 11:57:35;;;;;;;11.52;10.32;;;41.20;39.80;;;;;;5050292;28;20024;-67
2021/09/17 12:03:15;;;;;;;7.40;6.75;;;42.30;36.90;;;;;;5052076;28;20039;-66
2021/09/17 12:05:42;;;;;;;8.40;7.60;;;41.30;37.00;;;;;;5051806;28;20032;-66
2021/09/17 12:08:10;;;;;;;8.43;7.57;;;40.90;37.30;;;;;;5045907;28;20047;-67
2021/09/17 12:11:01;;;;;;;6.85;5.90;;;40.70;37.20;;;;;;5038131;28;20075;-67
2021/09/17 12:13:26;;;;;;;6.57;6.00;;;40.10;37.40;;;;;;5046500;28;20107;-66
2021/09/17 12:15:58;;;;;;;5.80;5.15;;;40.40;36.80;;;;;;5050502;28;20103;-67
2021/09/17 12:18:27;;;;;;;5.18;4.78;;;40.60;36.30;;;;;;5049578;28;20021;-66
2021/09/17 12:20:57;;;;;;;4.57;4.20;;;40.80;36.30;;;;;;5049317;28;20021;-67
2021/09/17 12:23:39;;;;;;;4.65;4.25;;;41.50;36.70;;;;;;5045496;28;20056;-66
2021/09/17 12:26:06;;;;;;;5.80;5.30;;;41.70;35.50;;;;;;5043975;28;20063;-66
2021/09/17 12:28:31;;;;;;;4.88;4.45;;;41.40;35.20;;;;;;5034629;28;20108;-66
2021/09/17 12:30:57;;;;;;;5.32;4.28;;;41.50;35.60;;;;;;5053178;28;20104;-66
2021/09/17 12:33:26;;;;;;;6.28;5.72;;;42.30;35.70;;;;;;5053007;28;20025;-67
2021/09/17 12:35:54;;;;;;;4.85;4.45;;;42.30;34.90;;;;;;5047374;28;20097;-66
2021/09/17 12:38:21;;;;;;;5.60;5.10;;;41.80;35.40;;;;;;5044907;28;20104;-66
2021/09/17 12:40:48;;;;;;;;;;;42.10;35.30;;;;;;5053669;28;20029;-66
2021/09/17 12:43:23;;;;;;;5.57;5.03;;;42.60;35.50;;;;;;5034963;28;19912;-66
2021/09/17 12:46:13;;;;;;;5.30;4.80;;;43.00;34.80;;;;;;5040168;28;20429;-67
2021/09/17 12:48:41;;;;;;;4.57;4.18;;;42.80;34.50;;;;;;5028349;28;20449;-66
2021/09/17 12:51:15;;;;;;;4.82;4.38;;;41.50;35.00;;;;;;5032612;28;20384;-66
2021/09/17 12:53:41;;;;;;;5.20;4.70;;;40.30;35.90;;;;;;5022168;28;20112;-66
2021/09/17 12:56:14;;;;;;;4.78;4.38;;;39.20;36.60;;;;;;5025965;28;20456;-66
2021/09/17 12:58:40;;;;;;;5.95;4.95;;;38.30;37.40;;;;;;5019142;28;20080;-66
2021/09/17 13:01:08;;;;;;;4.75;4.30;;;37.80;37.70;;;;;;5015525;28;20036;-66
2021/09/17 13:03:34;;;;;;;;;;;37.60;38.30;;;;;;5015166;28;20017;-66
2021/09/17 13:06:04;;;;;;;4.80;4.30;;;37.10;38.60;;;;;;5023789;28;19913;-66
2021/09/17 13:08:31;;;;;;;5.18;4.05;;;36.40;39.10;;;;;;5028506;28;20095;-66
2021/09/17 13:10:56;;;;;;;5.50;4.70;;;35.90;39.60;;;;;;5025086;28;20046;-66
2021/09/17 13:13:23;;;;;;;6.78;5.05;;;35.50;39.80;;;;;;5026268;28;20068;-66
2021/09/17 13:15:57;;;;;;;6.00;4.65;;;35.50;40.00;;;;;;5026698;28;20034;-66
2021/09/17 13:18:23;;;;;;;4.63;4.07;;;35.30;40.00;;;;;;5026111;28;20064;-66